• Join FlightAware (Why Join?)
  • Login
  • US Flag 
09:56AM EDT


 

Airport Tracker/Info


-or-


 

Live Flight TrackerFlight Track Log ✈ PDT4373 ✈ 10-Oct-2013 ✈ KBGM - KPHL

Flight Track Log - Related Links

Times and Time Zones

All times are in EDT time to prevent confusion due to time zone crossing. See the PDT4373 flight status page for this flight to view local times or setup timezone preferences in your user account.

Time Position Orientation Groundspeed Altitude Reporting Facility
EDT Latitude Longitude Course Direction KTS MPH feet Rate Location/Type
01:12PM 41.7222 -75.8214 161° South  Level Estimated
01:13PM 41.6614 -75.8017 162° South  Level Estimated
01:14PM 41.6011 -75.7801 165° South  Level FlightAware Approximate
01:15PM 41.5406 -75.7584 165° South  Level FlightAware Approximate
01:16PM 41.4803 -75.7368 165° South  Level FlightAware Approximate
01:17PM 41.4198 -75.7153 165° South  Level FlightAware Approximate
01:18PM 41.3590 -75.6962 163° South  Level Estimated
01:19PM 41.2988 -75.6744 165° South  Level FlightAware Approximate
01:20PM 41.2385 -75.6526 165° South  Level FlightAware Approximate
01:21PM 41.1783 -75.6308 165° South  Level FlightAware Approximate
01:22PM 41.1181 -75.6091 165° South  Level FlightAware Approximate
01:23PM 41.0573 -75.5908 159° South  Level Estimated
01:24PM 40.9964 -75.5725 163° South  Level Estimated
01:25PM 40.9372 -75.5465 162° South  Level FlightAware Approximate
01:26PM 40.8779 -75.5205 162° South  Level FlightAware Approximate
01:27PM 40.8187 -75.4946 162° South  Level FlightAware Approximate
01:28PM 40.7576 -75.4780 190° South  Level Estimated
01:29PM 40.6953 -75.4833 184° South  Level FlightAware Approximate
01:30PM 40.6330 -75.4886 184° South  Level FlightAware Approximate
01:31PM 40.5725 -75.4687 187° South  Level Estimated
01:32PM 40.5115 -75.4857 192° South  Level FlightAware Approximate
01:33PM 40.4516 -75.4626 188° South  Level Estimated
01:33PM 40.7000 -75.6500 143° Southeast 224 258 7,000  Level Philadelphia TRACON
01:34PM 40.3915 -75.4850 196° South  Level FlightAware Approximate
01:34PM 40.6500 -75.6500 180° South 223 257 7,000  Level Philadelphia TRACON
01:35PM 40.3315 -75.5073 196° South  Level FlightAware Approximate
01:35PM 40.6000 -75.6333 166° South 221 254 7,000  Level Philadelphia TRACON
01:36PM 40.2745 -75.4740 143° Southeast  Level Estimated
01:36PM 40.5333 -75.6167 169° South 220 253 7,000  Level Philadelphia TRACON
01:37PM 40.2131 -75.4597 170° South  Level FlightAware Approximate
01:37PM 40.4833 -75.6000 166° South 221 254 7,000  Level Philadelphia TRACON
01:38PM 40.1571 -75.4236 159° South  Level Estimated
01:38PM 40.4167 -75.5833 169° South 215 247 7,000  Level Philadelphia TRACON
01:39PM 40.1011 -75.3875 143° Southeast  Level Estimated
01:39PM 40.3667 -75.5500 153° Southeast 215 247 7,000  Level Philadelphia TRACON
01:40PM 40.3167 -75.5000 143° Southeast 214 246 6,600 -720 Descending Philadelphia TRACON
01:41PM 40.2667 -75.4667 153° Southeast 227 261 5,600 -780 Descending Philadelphia TRACON
01:42PM 40.2000 -75.4167 150° Southeast 227 261 5,000 -660 Descending Philadelphia TRACON
01:43PM 40.1667 -75.3833 143° Southeast 174 200 4,300 -780 Descending Philadelphia TRACON
01:44PM 40.1167 -75.3500 153° Southeast 188 216 3,500 -1,020 Descending Philadelphia TRACON
01:45PM 40.0667 -75.3333 166° South 177 204 2,300 -720 Descending Philadelphia TRACON
01:46PM 40.0167 -75.3000 153° Southeast 150 173 2,000 -180 Descending Philadelphia TRACON
01:47PM 39.9833 -75.2833 159° South 144 166 2,000 -300 Level Philadelphia TRACON
01:48PM 39.9500 -75.2667 159° South 137 158 1,400 -660 Descending Philadelphia TRACON
01:49PM 39.9167 -75.2500 159° South 145 167 700 -720 Descending Philadelphia TRACON